Time;durP1;ratioP1;P1;durP2;ratioP2;P2;SDS_P1;SDS_P2;PMS_P1;PMS_P2;Temp;Humidity;BMP_temperature;BMP_pressure;BME280_temperature;BME280_humidity;BME280_pressure;Samples;Min_cycle;Max_cycle;Signal;HPM_P1;HPM_P2
2021/09/01 00:02:07;;;;;;;2.58;1.27;;;15.30;99.90;;;;;;6126056;23;20033;-75
2021/09/01 00:04:33;;;;;;;2.15;1.30;;;15.30;99.90;;;;;;6122811;23;20033;-75
2021/09/01 00:06:59;;;;;;;2.38;1.25;;;15.40;99.90;;;;;;6125281;23;20436;-74
2021/09/01 00:09:25;;;;;;;3.17;1.38;;;15.40;99.90;;;;;;6125507;23;20037;-75
2021/09/01 00:11:53;;;;;;;1.52;1.02;;;15.40;99.90;;;;;;6124461;23;20084;-76
2021/09/01 00:14:19;;;;;;;3.00;1.20;;;15.40;99.90;;;;;;6125889;23;20025;-76
2021/09/01 00:16:45;;;;;;;3.47;1.05;;;15.40;99.90;;;;;;6124955;23;20029;-76
2021/09/01 00:19:12;;;;;;;2.05;1.15;;;15.30;99.90;;;;;;6125542;23;20017;-76
2021/09/01 00:21:38;;;;;;;2.60;1.17;;;15.30;99.90;;;;;;6125033;23;20069;-76
2021/09/01 00:24:05;;;;;;;2.58;1.30;;;15.30;99.90;;;;;;6125959;23;20090;-76
2021/09/01 00:26:31;;;;;;;1.90;1.20;;;15.30;99.90;;;;;;6125233;23;20005;-76
2021/09/01 00:28:58;;;;;;;3.30;1.98;;;15.30;99.90;;;;;;6124956;23;20010;-76
2021/09/01 00:31:24;;;;;;;2.03;1.27;;;15.30;99.90;;;;;;6125865;23;20001;-75
2021/09/01 00:33:50;;;;;;;1.55;1.00;;;15.20;99.90;;;;;;6125253;23;20337;-75
2021/09/01 00:36:16;;;;;;;5.03;1.67;;;15.20;99.90;;;;;;6125556;23;20341;-76
2021/09/01 00:38:43;;;;;;;4.07;1.33;;;15.20;99.90;;;;;;6125080;23;20030;-76
2021/09/01 00:41:22;;;;;;;3.35;1.52;;;15.20;99.90;;;;;;6124441;23;20116;-75
2021/09/01 00:43:52;;;;;;;1.77;1.20;;;15.20;99.90;;;;;;6125395;23;20006;-74
2021/09/01 00:46:18;;;;;;;3.50;1.27;;;15.20;99.90;;;;;;6125123;23;20742;-75
2021/09/01 00:48:44;;;;;;;3.90;1.08;;;15.20;99.90;;;;;;6125218;23;20005;-75
2021/09/01 00:51:10;;;;;;;1.55;0.90;;;15.20;99.90;;;;;;6125980;23;20010;-75
2021/09/01 00:53:42;;;;;;;2.90;1.20;;;15.20;99.90;;;;;;6125752;23;20450;-75
2021/09/01 00:56:09;;;;;;;2.20;1.10;;;15.20;99.90;;;;;;6126121;23;20005;-75
2021/09/01 00:58:37;;;;;;;2.17;1.00;;;15.20;99.90;;;;;;6125718;23;20315;-75
2021/09/01 01:01:16;;;;;;;1.92;1.00;;;15.20;99.90;;;;;;6126186;23;20627;-75
2021/09/01 01:03:52;;;;;;;2.55;1.13;;;15.20;99.90;;;;;;6125203;23;20392;-75
2021/09/01 01:06:26;;;;;;;4.15;1.33;;;15.20;99.90;;;;;;6126186;23;20012;-75
2021/09/01 01:08:52;;;;;;;1.52;0.98;;;15.20;99.90;;;;;;6125914;23;20009;-74
2021/09/01 01:11:18;;;;;;;3.55;1.50;;;15.20;99.90;;;;;;6126146;23;20095;-75
2021/09/01 01:13:45;;;;;;;1.30;1.00;;;15.10;99.90;;;;;;6124889;23;20006;-75
2021/09/01 01:16:18;;;;;;;1.65;1.30;;;15.10;99.90;;;;;;6125837;23;20065;-74
2021/09/01 01:18:48;;;;;;;2.22;1.40;;;15.10;99.90;;;;;;6125589;23;20072;-74
2021/09/01 01:21:26;;;;;;;1.52;1.00;;;15.00;99.90;;;;;;6125487;23;20081;-76
2021/09/01 01:24:01;;;;;;;2.33;1.48;;;15.00;99.90;;;;;;6099746;23;20034;-75
2021/09/01 01:26:30;;;;;;;2.95;1.40;;;15.00;99.90;;;;;;6125744;23;20002;-76
2021/09/01 01:28:59;;;;;;;2.22;1.70;;;15.00;99.90;;;;;;6128801;23;20009;-76
2021/09/01 01:31:25;;;;;;;5.32;1.60;;;15.00;99.90;;;;;;6127886;23;20357;-75
2021/09/01 01:33:51;;;;;;;3.20;1.65;;;14.90;99.90;;;;;;6125991;23;20012;-76
2021/09/01 01:36:17;;;;;;;5.82;1.50;;;14.90;99.90;;;;;;6125733;23;20029;-75
2021/09/01 01:38:43;;;;;;;2.58;1.42;;;14.90;99.90;;;;;;6126998;23;20002;-76
2021/09/01 01:41:09;;;;;;;3.65;1.60;;;14.90;99.90;;;;;;6125925;23;20020;-76
2021/09/01 01:43:36;;;;;;;2.92;1.92;;;14.90;99.90;;;;;;6125065;23;20132;-76
2021/09/01 01:46:04;;;;;;;2.45;1.20;;;14.90;99.90;;;;;;6125001;23;20084;-76
2021/09/01 01:48:30;;;;;;;3.10;1.40;;;14.90;99.90;;;;;;6125792;23;20433;-76
2021/09/01 01:50:56;;;;;;;3.67;1.60;;;14.90;99.90;;;;;;6120701;23;20002;-76
2021/09/01 01:53:21;;;;;;;2.10;1.30;;;14.90;99.90;;;;;;6124167;23;20080;-76
2021/09/01 01:55:47;;;;;;;1.98;1.30;;;14.90;99.90;;;;;;6122474;23;20016;-76
2021/09/01 01:58:12;;;;;;;4.25;1.40;;;14.90;99.90;;;;;;6123380;23;20034;-76
2021/09/01 02:00:38;;;;;;;2.95;1.00;;;14.90;99.90;;;;;;6123762;23;20010;-77
2021/09/01 02:03:04;;;;;;;2.05;1.10;;;14.80;99.90;;;;;;6123732;23;20029;-76
2021/09/01 02:05:30;;;;;;;1.55;0.70;;;14.80;99.90;;;;;;6123501;23;20009;-76
2021/09/01 02:07:56;;;;;;;2.70;1.02;;;14.80;99.90;;;;;;6123727;23;20076;-76
2021/09/01 02:10:22;;;;;;;1.92;0.93;;;14.80;99.90;;;;;;6123308;23;20065;-76
2021/09/01 02:12:47;;;;;;;1.20;0.95;;;14.80;99.90;;;;;;6098368;23;20014;-76
2021/09/01 02:15:13;;;;;;;1.50;1.17;;;14.80;99.90;;;;;;6124011;23;20049;-76
2021/09/01 02:17:40;;;;;;;1.65;1.10;;;14.80;99.90;;;;;;6123695;23;20002;-76
2021/09/01 02:20:08;;;;;;;1.30;0.90;;;14.80;99.90;;;;;;6123708;23;20042;-76
2021/09/01 02:22:34;;;;;;;1.50;1.10;;;14.80;99.90;;;;;;6123480;23;20006;-76
2021/09/01 02:24:59;;;;;;;1.30;0.90;;;14.80;99.90;;;;;;6123281;23;20032;-76
2021/09/01 02:27:25;;;;;;;1.30;1.15;;;14.80;99.90;;;;;;6122501;23;20493;-76
2021/09/01 02:29:51;;;;;;;1.38;1.08;;;14.80;99.90;;;;;;6123295;23;20010;-76
2021/09/01 02:32:17;;;;;;;1.15;1.05;;;14.80;99.90;;;;;;6123297;23;20085;-76
2021/09/01 02:34:42;;;;;;;1.50;1.02;;;14.80;99.90;;;;;;6123830;23;20004;-76
2021/09/01 02:37:08;;;;;;;1.85;1.20;;;14.70;99.90;;;;;;6123154;23;20037;-76
2021/09/01 02:39:34;;;;;;;3.38;1.20;;;14.80;99.90;;;;;;6123461;23;20017;-76
2021/09/01 02:42:00;;;;;;;1.38;1.10;;;14.80;99.90;;;;;;6123704;23;20001;-76
2021/09/01 02:44:25;;;;;;;3.53;1.42;;;14.80;99.90;;;;;;6122760;23;20006;-77
2021/09/01 02:46:51;;;;;;;4.03;1.38;;;14.80;99.90;;;;;;6123072;23;20005;-76
2021/09/01 02:49:17;;;;;;;1.13;0.77;;;14.80;99.90;;;;;;6122145;23;20009;-77
2021/09/01 02:51:42;;;;;;;2.20;1.35;;;14.70;99.90;;;;;;6123076;23;20437;-77
2021/09/01 02:54:08;;;;;;;2.67;1.52;;;14.70;99.90;;;;;;6123694;23;20006;-76
2021/09/01 02:56:34;;;;;;;8.15;1.95;;;14.70;99.90;;;;;;6123290;23;20082;-76
2021/09/01 02:58:59;;;;;;;2.78;1.73;;;14.60;99.90;;;;;;6122320;23;20010;-77
2021/09/01 03:01:25;;;;;;;4.78;1.55;;;14.60;99.90;;;;;;6123370;23;20041;-76
2021/09/01 03:03:51;;;;;;;2.05;1.70;;;14.60;99.90;;;;;;6122348;23;20017;-76
2021/09/01 03:06:17;;;;;;;1.88;1.60;;;14.60;99.90;;;;;;6123072;23;20028;-76
2021/09/01 03:08:42;;;;;;;2.17;1.52;;;14.60;99.90;;;;;;6122999;23;20006;-76
2021/09/01 03:11:08;;;;;;;4.55;1.75;;;14.60;99.90;;;;;;6122333;23;20425;-76
2021/09/01 03:13:34;;;;;;;3.33;1.73;;;14.60;99.90;;;;;;6122301;23;20010;-76
2021/09/01 03:16:00;;;;;;;3.35;1.48;;;14.60;99.90;;;;;;6123768;23;20008;-75
2021/09/01 03:18:25;;;;;;;2.42;1.15;;;14.60;99.90;;;;;;6122867;23;20005;-76
2021/09/01 03:20:51;;;;;;;1.80;1.00;;;14.60;99.90;;;;;;6122659;23;20010;-75
2021/09/01 03:23:17;;;;;;;2.22;1.73;;;14.60;99.90;;;;;;6122854;23;20535;-76
2021/09/01 03:25:44;;;;;;;1.70;1.33;;;14.50;99.90;;;;;;6122776;23;20014;-76
2021/09/01 03:28:10;;;;;;;1.67;1.33;;;14.50;99.90;;;;;;6122514;23;20002;-76
2021/09/01 03:30:35;;;;;;;1.38;1.05;;;14.50;99.90;;;;;;6122558;23;20002;-76
2021/09/01 03:33:01;;;;;;;4.45;1.38;;;14.40;99.90;;;;;;6122748;23;20020;-76
2021/09/01 03:35:27;;;;;;;3.03;1.40;;;14.40;99.90;;;;;;6096691;23;20010;-76
2021/09/01 03:37:53;;;;;;;2.85;1.45;;;14.50;99.90;;;;;;6122731;23;20006;-77
2021/09/01 03:40:19;;;;;;;2.75;1.48;;;14.40;99.90;;;;;;6121639;23;20437;-77
2021/09/01 03:42:44;;;;;;;1.73;1.35;;;14.40;99.90;;;;;;6122570;23;20655;-76
2021/09/01 03:45:11;;;;;;;6.38;1.63;;;14.40;99.90;;;;;;6122094;23;20005;-76
2021/09/01 03:47:37;;;;;;;2.33;1.60;;;14.40;99.90;;;;;;6122421;23;20333;-76
2021/09/01 03:50:05;;;;;;;4.38;1.92;;;14.40;99.90;;;;;;6121045;23;20013;-77
2021/09/01 03:52:31;;;;;;;3.13;2.10;;;14.40;99.90;;;;;;6122604;23;20006;-77
2021/09/01 03:54:56;;;;;;;1.98;1.50;;;14.40;99.90;;;;;;6123083;23;20390;-76
2021/09/01 03:57:22;;;;;;;3.22;1.80;;;14.40;99.90;;;;;;6122821;23;20393;-76
2021/09/01 03:59:48;;;;;;;5.40;1.85;;;14.40;99.90;;;;;;6121524;23;20101;-76
2021/09/01 04:02:13;;;;;;;3.30;1.88;;;14.30;99.90;;;;;;6122292;23;20348;-77
2021/09/01 04:04:39;;;;;;;2.60;1.92;;;14.40;99.90;;;;;;6123102;23;20013;-76
2021/09/01 04:07:05;;;;;;;3.03;1.88;;;14.40;99.90;;;;;;6123286;23;20006;-76
2021/09/01 04:09:31;;;;;;;3.47;2.45;;;14.40;99.90;;;;;;6122595;23;20002;-77
2021/09/01 04:11:57;;;;;;;4.25;2.40;;;14.30;99.90;;;;;;6122076;23;20107;-76
2021/09/01 04:14:23;;;;;;;4.30;2.65;;;14.30;99.90;;;;;;6122944;23;20034;-75
2021/09/01 04:16:49;;;;;;;6.63;2.60;;;14.30;99.90;;;;;;6122491;23;20006;-76
2021/09/01 04:19:15;;;;;;;5.30;2.50;;;14.40;99.90;;;;;;6123408;23;20017;-75
2021/09/01 04:21:40;;;;;;;4.88;2.95;;;14.40;99.90;;;;;;6124673;23;20013;-76
2021/09/01 04:24:06;;;;;;;5.25;3.15;;;14.40;99.90;;;;;;6124504;23;20362;-76
2021/09/01 04:26:32;;;;;;;4.15;2.83;;;14.40;99.90;;;;;;6124830;23;20006;-76
2021/09/01 04:28:58;;;;;;;3.25;2.40;;;14.40;99.90;;;;;;6098691;23;20033;-76
2021/09/01 04:31:23;;;;;;;4.28;3.17;;;14.40;99.90;;;;;;6125075;23;20337;-76
2021/09/01 04:33:49;;;;;;;4.65;2.85;;;14.40;99.90;;;;;;6123559;23;20396;-76
2021/09/01 04:36:15;;;;;;;2.45;2.20;;;14.40;99.90;;;;;;6123647;23;20013;-77
2021/09/01 04:38:40;;;;;;;5.35;2.75;;;14.40;99.90;;;;;;6124252;23;20390;-77
2021/09/01 04:41:06;;;;;;;5.55;2.35;;;14.40;99.90;;;;;;6098760;23;20006;-77
2021/09/01 04:43:32;;;;;;;4.43;2.30;;;14.40;99.90;;;;;;6124276;23;20090;-75
2021/09/01 04:45:57;;;;;;;4.40;2.85;;;14.40;99.90;;;;;;6124380;23;20006;-76
2021/09/01 04:48:24;;;;;;;4.78;2.75;;;14.40;99.90;;;;;;6123831;23;20101;-77
2021/09/01 04:50:51;;;;;;;3.60;2.78;;;14.40;99.90;;;;;;6123269;23;20041;-77
2021/09/01 04:53:17;;;;;;;5.05;3.20;;;14.40;99.90;;;;;;6124380;23;20002;-77
2021/09/01 04:55:43;;;;;;;5.63;3.47;;;14.30;99.90;;;;;;6123798;23;20033;-76
2021/09/01 04:58:09;;;;;;;4.65;3.33;;;14.30;99.90;;;;;;6124807;23;20422;-75
2021/09/01 05:00:35;;;;;;;5.53;3.83;;;14.30;99.90;;;;;;6123329;23;20109;-76
2021/09/01 05:03:01;;;;;;;6.53;4.50;;;14.30;99.90;;;;;;6125031;23;20021;-76
2021/09/01 05:05:26;;;;;;;6.32;4.45;;;14.30;99.90;;;;;;6124150;23;20109;-76
2021/09/01 05:07:52;;;;;;;5.75;4.35;;;14.30;99.90;;;;;;6123811;23;20006;-76
2021/09/01 05:10:18;;;;;;;7.05;4.65;;;14.40;99.90;;;;;;6124467;23;20467;-74
2021/09/01 05:12:48;;;;;;;5.85;4.50;;;14.30;99.90;;;;;;6124028;23;20329;-76
2021/09/01 05:15:15;;;;;;;8.40;5.47;;;14.40;99.90;;;;;;6124204;23;20013;-76
2021/09/01 05:17:41;;;;;;;10.80;5.72;;;14.40;99.90;;;;;;6123205;23;20029;-76
2021/09/01 05:20:08;;;;;;;9.77;6.45;;;14.40;99.90;;;;;;6117938;23;20426;-76
2021/09/01 05:22:36;;;;;;;7.65;6.05;;;14.40;99.90;;;;;;6122517;23;20338;-76
2021/09/01 05:25:06;;;;;;;8.38;6.40;;;14.40;99.90;;;;;;6120943;23;20401;-76
2021/09/01 05:27:35;;;;;;;7.97;6.50;;;14.40;99.90;;;;;;6121855;23;20084;-76
2021/09/01 05:30:03;;;;;;;8.48;6.47;;;14.40;99.90;;;;;;6120875;23;20036;-76
2021/09/01 05:32:31;;;;;;;10.55;7.43;;;14.40;99.90;;;;;;6121622;23;20006;-76
2021/09/01 05:35:00;;;;;;;9.82;7.72;;;14.30;99.90;;;;;;6121798;23;20065;-76
2021/09/01 05:37:27;;;;;;;10.10;7.72;;;14.40;99.90;;;;;;6122513;23;20005;-75
2021/09/01 05:39:56;;;;;;;10.43;8.20;;;14.30;99.90;;;;;;6121391;23;20663;-75
2021/09/01 05:42:24;;;;;;;11.55;8.70;;;14.40;99.90;;;;;;6121909;23;20002;-76
2021/09/01 05:44:51;;;;;;;9.35;8.05;;;14.30;99.90;;;;;;6120656;23;20006;-76
2021/09/01 05:47:18;;;;;;;10.77;9.15;;;14.30;99.90;;;;;;6121988;23;20002;-76
2021/09/01 05:49:47;;;;;;;12.18;8.18;;;14.30;99.90;;;;;;6120955;23;20046;-76
2021/09/01 05:52:14;;;;;;;9.52;8.05;;;14.30;99.90;;;;;;6121195;23;20016;-76
2021/09/01 05:54:42;;;;;;;10.40;8.40;;;14.40;99.90;;;;;;6120850;23;20006;-76
2021/09/01 05:57:12;;;;;;;14.85;9.77;;;14.40;99.90;;;;;;6120112;23;20068;-76
2021/09/01 06:00:00;;;;;;;12.13;8.57;;;14.30;99.90;;;;;;6121421;23;20018;-74
2021/09/01 06:02:52;;;;;;;30.45;10.07;;;14.40;99.90;;;;;;6122207;23;20128;-76
2021/09/01 06:05:19;;;;;;;14.10;10.85;;;14.30;99.90;;;;;;6095051;23;20483;-76
2021/09/01 06:07:55;;;;;;;14.13;9.70;;;14.30;99.90;;;;;;6120413;23;20433;-76
2021/09/01 06:10:29;;;;;;;12.30;9.40;;;14.30;99.90;;;;;;6123631;23;20013;-76
2021/09/01 06:12:58;;;;;;;13.23;9.88;;;14.40;99.90;;;;;;6121594;23;20013;-76
2021/09/01 06:15:24;;;;;;;14.27;9.75;;;14.40;99.90;;;;;;6123086;23;20516;-76
2021/09/01 06:17:50;;;;;;;15.73;9.75;;;14.40;99.90;;;;;;6124859;23;20029;-76
2021/09/01 06:20:16;;;;;;;12.63;10.30;;;14.30;99.90;;;;;;6123918;23;20341;-76
2021/09/01 06:22:42;;;;;;;14.80;10.18;;;14.40;99.90;;;;;;6124107;23;20089;-76
2021/09/01 06:25:08;;;;;;;15.18;10.60;;;14.30;99.90;;;;;;6124822;23;20012;-76
2021/09/01 06:27:34;;;;;;;13.88;10.00;;;14.30;99.90;;;;;;6123766;23;20009;-75
2021/09/01 06:29:59;;;;;;;12.63;9.57;;;14.30;99.90;;;;;;6124704;23;20454;-75
2021/09/01 06:32:25;;;;;;;11.77;9.85;;;14.30;99.90;;;;;;6123550;23;20077;-76
2021/09/01 06:34:51;;;;;;;13.30;9.63;;;14.30;99.90;;;;;;6123602;23;20073;-75
2021/09/01 06:37:16;;;;;;;13.50;10.13;;;14.30;99.90;;;;;;6120041;23;20492;-74
2021/09/01 06:39:42;;;;;;;14.10;10.25;;;14.40;99.90;;;;;;6120381;23;20349;-75
2021/09/01 06:42:08;;;;;;;12.50;9.60;;;14.40;99.90;;;;;;6123487;23;20022;-75
2021/09/01 06:44:34;;;;;;;12.75;9.43;;;14.50;99.90;;;;;;6122858;23;20005;-75
2021/09/01 06:47:00;;;;;;;13.93;10.02;;;14.50;99.90;;;;;;6124564;23;20036;-76
2021/09/01 06:49:26;;;;;;;14.63;9.93;;;14.60;99.90;;;;;;6123999;23;20005;-76
2021/09/01 06:51:51;;;;;;;11.50;9.15;;;14.60;99.90;;;;;;6123779;23;20648;-76
2021/09/01 06:54:17;;;;;;;16.05;9.02;;;14.70;99.90;;;;;;6123050;23;20117;-76
2021/09/01 06:56:43;;;;;;;11.77;9.23;;;14.80;99.90;;;;;;6097948;23;20006;-76
2021/09/01 06:59:08;;;;;;;14.38;9.48;;;14.80;99.90;;;;;;6123292;23;20010;-77
2021/09/01 07:01:34;;;;;;;12.93;8.57;;;14.80;99.90;;;;;;6124142;23;20014;-76
2021/09/01 07:04:00;;;;;;;11.45;8.48;;;14.90;99.90;;;;;;6123185;23;20326;-76
2021/09/01 07:06:25;;;;;;;12.35;8.38;;;14.90;99.90;;;;;;6122934;23;20138;-76
2021/09/01 07:08:51;;;;;;;15.80;8.50;;;14.90;99.90;;;;;;6122676;23;20052;-76
2021/09/01 07:11:17;;;;;;;11.88;8.30;;;14.90;99.90;;;;;;6118667;23;20085;-76
2021/09/01 07:13:43;;;;;;;16.70;8.57;;;15.00;99.90;;;;;;6121680;23;20074;-76
2021/09/01 07:16:11;;;;;;;9.20;8.18;;;15.10;99.90;;;;;;6096133;23;20026;-76
2021/09/01 07:18:37;;;;;;;10.65;7.45;;;15.20;99.90;;;;;;6120470;23;20449;-76
2021/09/01 07:21:03;;;;;;;10.30;8.05;;;15.40;99.90;;;;;;6121702;23;20013;-75
2021/09/01 07:23:29;;;;;;;13.30;8.25;;;15.50;99.90;;;;;;6120828;23;20334;-76
2021/09/01 07:25:54;;;;;;;11.70;7.80;;;15.50;99.90;;;;;;6120896;23;20010;-76
2021/09/01 07:28:20;;;;;;;11.32;7.60;;;15.60;99.90;;;;;;6120600;23;20053;-76
2021/09/01 07:30:46;;;;;;;9.80;7.72;;;15.70;99.90;;;;;;6121138;23;20005;-76
2021/09/01 07:33:11;;;;;;;10.70;6.97;;;16.00;99.90;;;;;;6119403;23;20391;-76
2021/09/01 07:35:37;;;;;;;8.10;6.65;;;16.10;99.90;;;;;;6121308;23;20445;-76
2021/09/01 07:38:03;;;;;;;8.23;6.13;;;16.20;99.90;;;;;;6122103;23;20081;-76
2021/09/01 07:40:29;;;;;;;10.27;7.22;;;16.10;99.90;;;;;;6120941;23;20038;-75
2021/09/01 07:42:55;;;;;;;9.48;7.03;;;16.20;99.90;;;;;;6119714;23;20444;-75
2021/09/01 07:45:21;;;;;;;11.35;7.13;;;16.20;99.90;;;;;;6122640;23;20114;-76
2021/09/01 07:47:54;;;;;;;8.48;6.70;;;16.20;99.90;;;;;;6120681;23;20114;-75
2021/09/01 07:50:22;;;;;;;7.60;6.32;;;16.30;99.90;;;;;;6118273;23;20029;-76
2021/09/01 07:52:49;;;;;;;9.68;6.30;;;16.20;99.90;;;;;;6118464;23;20394;-76
2021/09/01 07:55:14;;;;;;;8.23;6.65;;;16.20;99.90;;;;;;6120150;23;20426;-76
2021/09/01 07:57:40;;;;;;;11.10;6.95;;;16.20;99.90;;;;;;6123350;23;20005;-76
2021/09/01 08:00:09;;;;;;;7.45;5.65;;;16.30;99.90;;;;;;6122008;23;20085;-76
2021/09/01 08:02:35;;;;;;;9.18;5.95;;;16.30;99.90;;;;;;6122080;23;20097;-76
2021/09/01 08:05:01;;;;;;;9.95;5.80;;;16.30;99.90;;;;;;6120878;23;20814;-76
2021/09/01 08:07:27;;;;;;;14.10;6.45;;;16.40;99.90;;;;;;6122767;23;20010;-76
2021/09/01 08:09:53;;;;;;;10.73;6.22;;;16.40;99.90;;;;;;6121860;23;20005;-76
2021/09/01 08:12:18;;;;;;;9.82;6.45;;;16.60;99.90;;;;;;6123376;23;20006;-76
2021/09/01 08:14:44;;;;;;;12.50;6.95;;;16.80;99.90;;;;;;6124400;23;20484;-76
2021/09/01 08:17:10;;;;;;;8.10;5.32;;;17.00;99.90;;;;;;6124257;23;20006;-75
2021/09/01 08:19:36;;;;;;;7.68;5.15;;;17.10;99.90;;;;;;6120422;23;20028;-76
2021/09/01 08:22:02;;;;;;;7.95;5.38;;;17.10;99.90;;;;;;6122159;23;20127;-74
2021/09/01 08:24:28;;;;;;;8.00;4.78;;;17.10;99.90;;;;;;6123845;23;20069;-76
2021/09/01 08:26:53;;;;;;;6.20;5.05;;;17.10;99.90;;;;;;6122382;23;20921;-75
2021/09/01 08:29:19;;;;;;;7.97;4.68;;;17.20;99.90;;;;;;6122157;23;20006;-75
2021/09/01 08:31:45;;;;;;;6.82;4.93;;;17.30;99.90;;;;;;6120566;23;20010;-75
2021/09/01 08:34:10;;;;;;;9.95;5.30;;;17.40;99.90;;;;;;6121828;23;20084;-75
2021/09/01 08:36:36;;;;;;;8.15;5.03;;;17.40;99.90;;;;;;6122499;23;20429;-76
2021/09/01 08:39:03;;;;;;;7.10;4.75;;;17.40;99.90;;;;;;6122164;23;20014;-75
2021/09/01 08:41:31;;;;;;;8.35;4.80;;;17.30;99.90;;;;;;6121907;23;20484;-76
2021/09/01 08:43:58;;;;;;;5.07;4.00;;;17.20;99.90;;;;;;6122122;23;20057;-76
2021/09/01 08:46:24;;;;;;;9.75;4.93;;;17.00;99.90;;;;;;6123551;23;20325;-76
2021/09/01 08:48:51;;;;;;;9.00;4.70;;;16.80;99.90;;;;;;6122042;23;20008;-76
2021/09/01 08:51:17;;;;;;;6.32;4.90;;;16.80;99.90;;;;;;6124040;23;20002;-76
2021/09/01 08:53:43;;;;;;;11.00;4.85;;;16.90;99.90;;;;;;6124201;23;20614;-76
2021/09/01 08:56:09;;;;;;;8.25;5.05;;;16.90;99.90;;;;;;6124861;23;20092;-75
2021/09/01 08:58:35;;;;;;;7.05;4.97;;;17.00;99.90;;;;;;6124256;23;20088;-76
2021/09/01 09:01:01;;;;;;;7.30;4.70;;;17.10;99.90;;;;;;6124706;23;20013;-76
2021/09/01 09:03:29;;;;;;;5.65;4.47;;;17.20;99.90;;;;;;6124320;23;20021;-76
2021/09/01 09:06:03;;;;;;;6.47;4.75;;;17.30;99.90;;;;;;6122302;23;20013;-76
2021/09/01 09:08:32;;;;;;;8.30;5.18;;;17.20;99.90;;;;;;6098397;23;20072;-76
2021/09/01 09:10:58;;;;;;;8.27;4.63;;;17.20;99.90;;;;;;6124636;23;20057;-76
2021/09/01 09:13:26;;;;;;;8.05;5.45;;;17.10;99.90;;;;;;6125013;23;20101;-76
2021/09/01 09:16:08;;;;;;;7.10;4.43;;;17.20;99.90;;;;;;6121504;23;20009;-76
2021/09/01 09:18:35;;;;;;;8.10;4.82;;;17.20;99.90;;;;;;6124527;23;20333;-76
2021/09/01 09:21:33;;;;;;;6.25;5.20;;;17.10;99.90;;;;;;6123301;23;20021;-76
2021/09/01 09:23:59;;;;;;;9.48;4.72;;;17.10;99.90;;;;;;6100305;23;20017;-76
2021/09/01 09:26:30;;;;;;;7.10;4.15;;;17.00;99.90;;;;;;6124748;23;20005;-76
2021/09/01 09:29:15;;;;;;;7.57;5.03;;;17.10;99.90;;;;;;6123079;23;20009;-76
2021/09/01 09:31:47;;;;;;;6.97;4.15;;;17.20;99.90;;;;;;6123083;23;20381;-76
2021/09/01 09:34:20;;;;;;;6.05;3.80;;;17.50;99.90;;;;;;6123204;23;20033;-76
2021/09/01 09:37:03;;;;;;;8.43;4.82;;;17.70;99.90;;;;;;6123343;23;20010;-76
2021/09/01 09:39:49;;;;;;;7.38;4.50;;;18.00;99.90;;;;;;6122291;23;20346;-76
2021/09/01 09:42:32;;;;;;;10.43;5.15;;;18.30;99.90;;;;;;6123341;23;20315;-76
2021/09/01 09:44:59;;;;;;;11.85;4.88;;;18.40;99.90;;;;;;6123851;23;20372;-76
2021/09/01 09:47:48;;;;;;;8.07;4.20;;;18.40;99.90;;;;;;6123210;23;20018;-76
2021/09/01 09:50:14;;;;;;;8.13;4.40;;;18.20;99.90;;;;;;6123534;23;20033;-76
2021/09/01 09:52:40;;;;;;;7.13;4.28;;;18.00;99.90;;;;;;6123672;23;20585;-77
2021/09/01 09:55:17;;;;;;;9.15;4.28;;;17.90;99.90;;;;;;6123508;23;20037;-76
2021/09/01 09:57:53;;;;;;;5.97;4.47;;;17.80;99.90;;;;;;6096380;23;20016;-76
2021/09/01 10:00:20;;;;;;;4.70;3.95;;;17.80;99.90;;;;;;6122320;23;20022;-74
2021/09/01 10:02:47;;;;;;;7.35;4.25;;;18.00;99.90;;;;;;6123701;23;20464;-76
2021/09/01 10:05:15;;;;;;;7.13;3.97;;;18.20;99.90;;;;;;6123068;23;20464;-76
2021/09/01 10:07:41;;;;;;;8.05;4.50;;;18.50;99.90;;;;;;6097070;23;20082;-76
2021/09/01 10:10:08;;;;;;;5.45;3.72;;;18.60;99.90;;;;;;6124332;23;20012;-76
2021/09/01 10:12:45;;;;;;;5.35;4.05;;;18.80;99.90;;;;;;6124697;23;19998;-76
2021/09/01 10:15:27;;;;;;;8.25;4.60;;;18.80;99.90;;;;;;6123139;23;20443;-74
2021/09/01 10:18:00;;;;;;;5.95;4.38;;;18.70;99.90;;;;;;6122581;23;20013;-76
2021/09/01 10:20:27;;;;;;;6.60;4.43;;;18.50;99.90;;;;;;6121496;23;20013;-76
2021/09/01 10:23:05;;;;;;;5.30;3.70;;;18.40;99.90;;;;;;6123021;23;20023;-76
2021/09/01 10:25:33;;;;;;;9.40;4.95;;;18.40;99.90;;;;;;6122873;23;20002;-76
2021/09/01 10:28:23;;;;;;;5.78;3.67;;;18.50;99.90;;;;;;6124763;23;20002;-75
2021/09/01 10:31:14;;;;;;;8.05;4.72;;;18.70;99.90;;;;;;6097353;23;20441;-76
2021/09/01 10:33:48;;;;;;;6.22;4.05;;;18.90;99.90;;;;;;6123999;23;20052;-76
2021/09/01 10:36:25;;;;;;;7.05;3.78;;;18.90;99.90;;;;;;6124759;23;20002;-76
2021/09/01 10:38:52;;;;;;;7.45;4.28;;;18.60;99.90;;;;;;6124007;23;20095;-75
2021/09/01 10:41:34;;;;;;;8.73;4.00;;;18.50;99.90;;;;;;6123552;23;20325;-75
2021/09/01 10:44:22;;;;;;;6.05;3.75;;;18.70;99.90;;;;;;6124513;23;20006;-75
2021/09/01 10:46:51;;;;;;;7.55;4.13;;;18.80;99.90;;;;;;6124301;23;20009;-75
2021/09/01 10:49:46;;;;;;;5.97;4.13;;;18.90;99.90;;;;;;6123587;23;20441;-75
2021/09/01 10:52:12;;;;;;;4.82;3.42;;;18.90;99.90;;;;;;6123530;23;20002;-75
2021/09/01 10:54:40;;;;;;;6.20;4.20;;;18.90;99.90;;;;;;6124344;23;20006;-75
2021/09/01 10:57:30;;;;;;;5.30;3.17;;;18.90;99.90;;;;;;6123118;23;20062;-75
2021/09/01 10:59:59;;;;;;;4.88;3.00;;;19.00;99.90;;;;;;6119701;23;20046;-75
2021/09/01 11:02:25;;;;;;;5.35;2.65;;;19.20;99.90;;;;;;6119867;23;20013;-75
2021/09/01 11:05:01;;;;;;;5.68;3.03;;;19.30;99.90;;;;;;6121018;23;20063;-75
2021/09/01 11:07:31;;;;;;;5.95;3.00;;;19.30;99.90;;;;;;6117165;23;20079;-76
2021/09/01 11:10:02;;;;;;;7.05;3.20;;;19.10;99.90;;;;;;6117972;23;20006;-75
2021/09/01 11:12:29;;;;;;;4.35;2.42;;;19.00;99.90;;;;;;6086023;23;20021;-78
2021/09/01 11:14:56;;;;;;;4.07;2.40;;;19.10;99.90;;;;;;6117919;23;20009;-75
2021/09/01 11:17:25;;;;;;;3.63;2.30;;;19.20;99.90;;;;;;6116171;23;20006;-76
2021/09/01 11:19:53;;;;;;;5.10;2.17;;;19.30;99.90;;;;;;6116234;23;20516;-75
2021/09/01 11:22:28;;;;;;;4.75;2.10;;;19.20;99.90;;;;;;6092134;23;20009;-75
2021/09/01 11:25:13;;;;;;;3.67;2.67;;;19.20;99.90;;;;;;6091550;23;20017;-75
2021/09/01 11:27:52;;;;;;;4.18;1.80;;;19.10;99.90;;;;;;6116728;23;20139;-75
2021/09/01 11:30:18;;;;;;;3.30;1.92;;;19.00;99.90;;;;;;6118008;23;20028;-75
2021/09/01 11:32:44;;;;;;;4.40;2.33;;;19.00;99.90;;;;;;6119448;23;20434;-75
2021/09/01 11:35:22;;;;;;;5.68;2.00;;;19.00;99.90;;;;;;6120692;23;20041;-75
2021/09/01 11:38:05;;;;;;;6.25;2.28;;;19.10;99.90;;;;;;6119938;23;20012;-75
2021/09/01 11:40:37;;;;;;;4.63;2.33;;;19.20;99.90;;;;;;6118988;23;20014;-75
2021/09/01 11:43:14;;;;;;;4.88;2.67;;;19.30;99.90;;;;;;6093034;23;20009;-75
2021/09/01 11:45:49;;;;;;;4.22;1.98;;;19.40;99.90;;;;;;6119091;23;20010;-75
2021/09/01 11:48:15;;;;;;;7.13;2.72;;;19.50;99.90;;;;;;6120369;23;20345;-75
2021/09/01 11:50:45;;;;;;;7.63;2.65;;;19.60;99.90;;;;;;6120122;23;20002;-75
2021/09/01 11:53:14;;;;;;;;;;;19.70;99.90;;;;;;6120388;23;20006;-75
2021/09/01 11:55:41;;;;;;;2.85;1.98;;;19.90;99.90;;;;;;6119820;23;19936;-75
2021/09/01 11:58:17;;;;;;;4.95;1.90;;;19.90;99.90;;;;;;6123975;23;20002;-75
2021/09/01 12:00:45;;;;;;;4.90;1.80;;;19.90;99.90;;;;;;6119512;23;20381;-76
2021/09/01 12:03:12;;;;;;;3.38;1.80;;;19.80;99.90;;;;;;6120367;23;20346;-75
2021/09/01 12:05:41;;;;;;;4.03;1.83;;;19.70;99.90;;;;;;6120060;23;20013;-76
2021/09/01 12:08:17;;;;;;;4.40;1.33;;;19.60;99.90;;;;;;6119409;23;20001;-76
2021/09/01 12:10:45;;;;;;;3.97;1.63;;;19.40;99.90;;;;;;6120238;23;20346;-74
2021/09/01 12:13:11;;;;;;;2.88;1.67;;;19.30;99.90;;;;;;6124465;23;20084;-76
2021/09/01 12:15:37;;;;;;;2.28;1.10;;;19.30;99.90;;;;;;6124849;23;20095;-76
2021/09/01 12:18:07;;;;;;;1.58;0.70;;;19.40;99.90;;;;;;6121576;23;20017;-76
2021/09/01 12:20:34;;;;;;;2.72;0.80;;;19.50;99.90;;;;;;6120049;23;20044;-76
2021/09/01 12:23:12;;;;;;;2.50;1.40;;;19.70;99.90;;;;;;6123213;23;20011;-75
2021/09/01 12:25:37;;;;;;;2.17;0.73;;;19.70;99.90;;;;;;6117622;23;20006;-76
2021/09/01 12:28:08;;;;;;;3.67;1.08;;;19.70;99.90;;;;;;6112897;23;20432;-76
2021/09/01 12:30:38;;;;;;;3.35;0.98;;;19.80;99.90;;;;;;6088179;23;20002;-76
2021/09/01 12:33:16;;;;;;;1.98;0.50;;;19.80;99.90;;;;;;6124541;23;20006;-76
2021/09/01 12:35:42;;;;;;;1.45;0.50;;;20.00;99.90;;;;;;6121481;23;20002;-76
2021/09/01 12:38:09;;;;;;;2.65;0.80;;;20.00;99.90;;;;;;6122936;23;20450;-75
2021/09/01 12:40:37;;;;;;;2.33;0.50;;;20.00;99.90;;;;;;6123851;23;20034;-75
2021/09/01 12:43:10;;;;;;;1.33;0.60;;;20.00;99.90;;;;;;6124265;23;20488;-75
2021/09/01 12:45:38;;;;;;;1.58;0.60;;;20.10;99.80;;;;;;6098295;23;20005;-75
2021/09/01 12:48:07;;;;;;;4.72;1.00;;;20.20;98.60;;;;;;6124526;23;20010;-76
2021/09/01 12:50:36;;;;;;;3.97;0.80;;;20.20;98.80;;;;;;6123829;23;20010;-76
2021/09/01 12:53:03;;;;;;;1.67;0.55;;;20.20;98.80;;;;;;6124029;23;20002;-76